createdAt,value
2023-05-02T00:02:05.649Z,66.34
2023-05-02T00:04:37.118Z,66.19
2023-05-02T00:07:08.077Z,66.03
2023-05-02T00:09:38.946Z,66.01
2023-05-02T00:12:09.812Z,65.99
2023-05-02T00:14:40.853Z,65.86
2023-05-02T00:17:18.549Z,65.71
2023-05-02T00:19:48.074Z,65.58
2023-05-02T00:22:18.920Z,65.58
2023-05-02T00:24:49.570Z,65.31
2023-05-02T00:27:20.485Z,64.99
2023-05-02T00:29:52.335Z,64.88
2023-05-02T00:32:23.476Z,64.82
2023-05-02T00:34:54.612Z,64.89
2023-05-02T00:37:29.530Z,65.02
2023-05-02T00:40:01.494Z,65.16
2023-05-02T00:42:36.150Z,65.72
2023-05-02T00:45:08.541Z,65.99
2023-05-02T00:47:39.200Z,66.11
2023-05-02T00:50:11.590Z,66.25
2023-05-02T00:52:42.265Z,66.24
2023-05-02T00:55:13.192Z,66.42
2023-05-02T00:57:44.150Z,66.48
2023-05-02T01:00:16.367Z,66.81
2023-05-02T01:02:54.538Z,66.88
2023-05-02T01:05:34.315Z,66.93
2023-05-02T01:08:15.172Z,66.99
2023-05-02T01:10:53.798Z,67.18
2023-05-02T01:13:29.400Z,67.50
2023-05-02T01:16:03.692Z,67.46
2023-05-02T01:18:37.738Z,67.52
2023-05-02T01:21:10.859Z,67.31
2023-05-02T01:23:47.712Z,67.37
2023-05-02T01:26:25.246Z,67.39
2023-05-02T01:29:01.608Z,67.41
2023-05-02T01:31:36.639Z,67.54
2023-05-02T01:34:10.890Z,67.52
2023-05-02T01:36:46.674Z,67.30
2023-05-02T01:39:22.254Z,67.13
2023-05-02T01:41:55.739Z,66.96
2023-05-02T01:44:28.255Z,66.65
2023-05-02T01:47:01.683Z,66.62
2023-05-02T01:49:34.870Z,66.48
2023-05-02T01:52:10.819Z,66.28
2023-05-02T01:54:43.941Z,66.19
2023-05-02T01:57:16.681Z,66.32
2023-05-02T01:59:48.748Z,66.31
2023-05-02T02:02:20.839Z,66.49
2023-05-02T02:04:53.602Z,66.76
2023-05-02T02:07:24.858Z,66.84
2023-05-02T02:09:55.559Z,67.02
2023-05-02T02:12:29.924Z,67.18
2023-05-02T02:15:04.922Z,67.31
2023-05-02T02:17:41.603Z,67.64
2023-05-02T02:20:16.463Z,67.95
2023-05-02T02:22:48.823Z,68.44
2023-05-02T02:25:21.029Z,68.28
2023-05-02T02:27:52.768Z,68.26
2023-05-02T02:30:23.753Z,68.36
2023-05-02T02:32:54.700Z,68.39
2023-05-02T02:35:27.380Z,68.73
2023-05-02T02:38:04.378Z,68.90
2023-05-02T02:40:48.748Z,69.22
2023-05-02T02:43:25.222Z,69.63
2023-05-02T02:46:09.489Z,69.68
2023-05-02T02:48:46.258Z,69.70
2023-05-02T02:51:26.990Z,69.99
2023-05-02T02:54:05.920Z,70.05
2023-05-02T02:56:43.353Z,70.05
2023-05-02T02:59:20.634Z,69.98
2023-05-02T03:02:02.651Z,70.09
2023-05-02T03:04:35.296Z,70.06
2023-05-02T03:07:06.419Z,70.28
2023-05-02T03:09:48.523Z,70.43
2023-05-02T03:12:19.733Z,70.61
2023-05-02T03:14:51.724Z,70.81
2023-05-02T03:17:24.951Z,71.07
2023-05-02T03:19:57.598Z,71.20
2023-05-02T03:22:28.392Z,71.45
2023-05-02T03:24:59.039Z,71.73
2023-05-02T03:27:29.911Z,71.98
2023-05-02T03:30:01.047Z,72.32
2023-05-02T03:32:31.950Z,72.54
2023-05-02T03:35:02.686Z,72.73
2023-05-02T03:37:34.862Z,73.18
2023-05-02T03:40:07.502Z,73.75
2023-05-02T03:42:41.353Z,74.12
2023-05-02T03:45:13.398Z,74.37
2023-05-02T03:47:44.524Z,74.59
2023-05-02T03:50:15.301Z,75.01
2023-05-02T03:52:46.463Z,75.04
2023-05-02T03:55:17.121Z,75.15
2023-05-02T03:57:48.022Z,75.24
2023-05-02T04:00:19.506Z,75.30
2023-05-02T04:02:50.462Z,75.47
2023-05-02T04:05:22.186Z,75.55
2023-05-02T04:07:53.171Z,75.67
2023-05-02T04:10:24.834Z,75.73
2023-05-02T04:12:55.919Z,75.80
2023-05-02T04:15:26.585Z,76.04
2023-05-02T04:17:58.785Z,76.18
2023-05-02T04:20:29.938Z,76.28
2023-05-02T04:23:01.018Z,76.52
2023-05-02T04:25:32.434Z,76.70
2023-05-02T04:28:03.358Z,76.71
2023-05-02T04:30:34.160Z,76.69
2023-05-02T04:33:04.963Z,76.80
2023-05-02T04:35:35.732Z,76.95
2023-05-02T04:38:06.633Z,77.04
2023-05-02T04:40:37.437Z,77.20
2023-05-02T04:43:08.552Z,77.02
2023-05-02T04:45:39.758Z,77.12
2023-05-02T04:48:11.036Z,77.20
2023-05-02T04:50:41.798Z,77.45
2023-05-02T04:53:12.688Z,77.38
2023-05-02T04:55:44.082Z,77.51
2023-05-02T04:58:15.859Z,77.69
2023-05-02T05:00:46.587Z,78.12
2023-05-02T05:03:17.648Z,79.11
2023-05-02T05:05:48.415Z,79.36
2023-05-02T05:08:19.010Z,79.70
2023-05-02T05:10:49.676Z,79.86
2023-05-02T05:13:20.420Z,79.94
2023-05-02T05:15:51.782Z,80.24
2023-05-02T05:18:22.536Z,80.52
2023-05-02T05:20:54.058Z,80.82
2023-05-02T05:23:25.060Z,81.52
2023-05-02T05:25:56.572Z,82.08
2023-05-02T05:28:27.438Z,82.26
2023-05-02T05:30:58.130Z,82.60
2023-05-02T05:33:29.355Z,83.35
2023-05-02T05:36:06.937Z,84.24
2023-05-02T05:38:38.503Z,85.18
2023-05-02T05:41:09.577Z,86.06
2023-05-02T05:43:40.338Z,86.50
2023-05-02T05:46:11.048Z,87.98
2023-05-02T05:48:41.873Z,88.29
2023-05-02T05:51:12.569Z,88.67
2023-05-02T05:53:43.226Z,89.55
2023-05-02T05:56:15.335Z,89.90
2023-05-02T05:58:46.497Z,90.16
2023-05-02T06:01:17.752Z,90.60
2023-05-02T06:03:49.710Z,91.04
2023-05-02T06:06:20.633Z,91.05
2023-05-02T06:08:51.583Z,91.43
2023-05-02T06:11:22.554Z,92.07
2023-05-02T06:13:54.084Z,91.36
2023-05-02T06:16:24.814Z,91.26
2023-05-02T06:18:55.695Z,91.48
2023-05-02T06:21:26.276Z,91.58
2023-05-02T06:23:56.976Z,91.77
2023-05-02T06:26:27.978Z,92.64
2023-05-02T06:28:59.332Z,93.23
2023-05-02T06:31:30.116Z,93.19
2023-05-02T06:34:01.181Z,92.91
2023-05-02T06:36:31.890Z,92.93
2023-05-02T06:39:02.650Z,92.95
2023-05-02T06:41:33.628Z,92.88
2023-05-02T06:44:05.698Z,92.70
2023-05-02T06:46:36.773Z,93.00
2023-05-02T06:49:13.299Z,92.84
2023-05-02T06:51:44.751Z,92.47
2023-05-02T06:54:15.871Z,91.99
2023-05-02T06:56:46.565Z,92.11
2023-05-02T06:59:17.744Z,92.07
2023-05-02T07:01:48.402Z,91.61
2023-05-02T07:04:20.049Z,91.37
2023-05-02T07:06:51.764Z,90.56
2023-05-02T07:09:22.380Z,89.34
2023-05-02T07:11:53.497Z,89.43
2023-05-02T07:14:24.487Z,88.92
2023-05-02T07:16:56.163Z,88.23
2023-05-02T07:19:26.851Z,86.78
2023-05-02T07:21:57.402Z,86.76
2023-05-02T07:24:28.412Z,85.94
2023-05-02T07:26:59.068Z,84.08
2023-05-02T07:29:30.148Z,84.03
2023-05-02T07:32:01.455Z,82.85
2023-05-02T07:34:32.650Z,82.14
2023-05-02T07:37:03.230Z,82.06
2023-05-02T07:39:35.859Z,81.84
2023-05-02T07:42:07.095Z,81.28
2023-05-02T07:44:37.590Z,80.90
2023-05-02T07:47:09.071Z,81.32
2023-05-02T07:49:39.635Z,81.09
2023-05-02T07:52:10.319Z,80.87
2023-05-02T07:54:41.249Z,80.29
2023-05-02T07:57:13.204Z,78.64
2023-05-02T07:59:44.007Z,78.18
2023-05-02T08:02:14.795Z,78.31
2023-05-02T08:04:45.421Z,77.10
2023-05-02T08:07:16.836Z,76.60
2023-05-02T08:09:47.361Z,76.06
2023-05-02T08:12:18.283Z,75.80
2023-05-02T08:14:49.783Z,74.73
2023-05-02T08:17:21.369Z,74.84
2023-05-02T08:19:52.065Z,74.34
2023-05-02T08:22:22.703Z,73.21
2023-05-02T08:24:53.268Z,73.14
2023-05-02T08:27:23.917Z,73.95
2023-05-02T08:29:54.875Z,73.85
2023-05-02T08:32:25.642Z,73.47
2023-05-02T08:34:58.931Z,73.31
2023-05-02T08:37:29.636Z,72.68
2023-05-02T08:40:01.304Z,72.71
2023-05-02T08:42:36.331Z,73.65
2023-05-02T08:45:09.542Z,72.59
2023-05-02T08:47:41.883Z,71.95
2023-05-02T08:50:13.451Z,72.11
2023-05-02T08:52:45.347Z,72.05
2023-05-02T08:55:17.045Z,72.43
2023-05-02T08:57:47.640Z,71.73
2023-05-02T09:00:20.345Z,70.75
2023-05-02T09:03:06.606Z,70.79
2023-05-02T09:05:43.143Z,70.27
2023-05-02T09:08:13.769Z,70.52
2023-05-02T09:10:45.130Z,70.04
2023-05-02T09:13:36.701Z,69.93
2023-05-02T09:16:09.546Z,68.56
2023-05-02T09:18:42.104Z,66.61
2023-05-02T09:21:15.312Z,66.12
2023-05-02T09:23:49.575Z,65.67
2023-05-02T09:26:22.296Z,64.78
2023-05-02T09:28:54.214Z,65.12
2023-05-02T09:31:49.481Z,64.11
2023-05-02T09:34:18.502Z,63.16
2023-05-02T09:36:51.980Z,62.00
2023-05-02T09:39:25.786Z,61.27
2023-05-02T09:41:57.488Z,62.29
2023-05-02T09:44:37.147Z,62.84
2023-05-02T09:47:09.274Z,62.51
2023-05-02T09:49:45.715Z,61.78
2023-05-02T09:52:18.317Z,60.02
2023-05-02T09:54:50.669Z,59.89
2023-05-02T09:57:21.917Z,60.21
2023-05-02T09:59:59.775Z,59.84
2023-05-02T10:02:31.459Z,59.70
2023-05-02T10:05:04.717Z,58.98
2023-05-02T10:07:36.775Z,58.56
2023-05-02T10:10:13.544Z,59.46
2023-05-02T10:12:44.964Z,59.71
2023-05-02T10:15:18.376Z,59.54
2023-05-02T10:17:52.983Z,58.95
2023-05-02T10:20:28.696Z,58.52
2023-05-02T10:23:02.472Z,59.11
2023-05-02T10:25:34.938Z,58.45
2023-05-02T10:28:06.609Z,57.10
2023-05-02T10:30:38.851Z,56.69
2023-05-02T10:33:09.661Z,56.67
2023-05-02T10:35:44.867Z,56.06
2023-05-02T10:38:19.165Z,56.21
2023-05-02T10:41:00.064Z,56.04
2023-05-02T10:43:36.347Z,54.96
2023-05-02T10:46:33.906Z,55.54
2023-05-02T10:49:06.508Z,55.26
2023-05-02T10:51:38.616Z,55.40
2023-05-02T10:54:29.223Z,55.70
2023-05-02T10:57:08.398Z,55.92
2023-05-02T10:59:40.997Z,54.83
2023-05-02T11:02:51.668Z,54.36
2023-05-02T11:05:22.863Z,54.40
2023-05-02T11:08:32.865Z,53.64
2023-05-02T11:11:42.589Z,53.69
2023-05-02T11:14:33.798Z,53.52
2023-05-02T11:17:11.621Z,54.02
2023-05-02T11:20:30.236Z,53.08
2023-05-02T11:23:25.833Z,51.96
2023-05-02T11:26:00.449Z,52.00
2023-05-02T11:28:47.778Z,53.00
2023-05-02T11:32:05.844Z,52.28
2023-05-02T11:34:50.797Z,52.28
2023-05-02T11:37:22.301Z,53.02
2023-05-02T11:39:53.745Z,52.12
2023-05-02T11:42:34.978Z,51.98
2023-05-02T11:45:06.572Z,52.45
2023-05-02T11:47:37.312Z,53.01
2023-05-02T11:50:10.155Z,52.20
2023-05-02T11:52:42.257Z,51.24
2023-05-02T11:55:15.031Z,51.94
2023-05-02T11:57:45.949Z,51.48
2023-05-02T12:00:18.409Z,51.59
2023-05-02T12:02:49.440Z,51.68
2023-05-02T12:05:30.676Z,51.17
2023-05-02T12:08:02.567Z,51.43
2023-05-02T12:10:40.232Z,51.12
2023-05-02T12:13:12.273Z,51.19
2023-05-02T12:15:43.285Z,51.19
2023-05-02T12:18:15.344Z,50.31
2023-05-02T12:20:46.943Z,50.16
2023-05-02T12:23:18.170Z,50.29
2023-05-02T12:25:49.170Z,50.51
2023-05-02T12:28:20.982Z,49.74
2023-05-02T12:30:53.011Z,49.39
2023-05-02T12:33:23.803Z,49.19
2023-05-02T12:35:54.483Z,48.43
2023-05-02T12:38:25.952Z,47.48
2023-05-02T12:40:57.705Z,46.22
2023-05-02T12:43:28.759Z,46.61
2023-05-02T12:46:13.183Z,47.55
2023-05-02T12:48:46.177Z,47.51
2023-05-02T12:51:28.648Z,47.90
2023-05-02T12:53:59.476Z,49.17
2023-05-02T12:56:32.517Z,47.66
2023-05-02T12:59:05.322Z,46.59
2023-05-02T13:01:36.966Z,45.37
2023-05-02T13:04:07.670Z,44.59
2023-05-02T13:06:38.544Z,44.46
2023-05-02T13:09:09.103Z,45.55
2023-05-02T13:11:40.369Z,46.66
2023-05-02T13:14:11.567Z,46.48
2023-05-02T13:16:42.383Z,45.32
2023-05-02T13:19:13.320Z,46.08
2023-05-02T13:21:43.937Z,46.40
2023-05-02T13:24:18.725Z,45.60
2023-05-02T13:26:49.518Z,45.59
2023-05-02T13:29:20.021Z,45.71
2023-05-02T13:31:50.840Z,46.56
2023-05-02T13:34:21.461Z,44.71
2023-05-02T13:36:52.486Z,44.79
2023-05-02T13:39:23.374Z,45.27
2023-05-02T13:41:53.871Z,46.11
2023-05-02T13:44:24.878Z,46.55
2023-05-02T13:46:55.533Z,45.80
2023-05-02T13:49:26.947Z,46.04
2023-05-02T13:51:58.196Z,45.48
2023-05-02T13:54:29.081Z,46.03
2023-05-02T13:56:59.919Z,45.45
2023-05-02T13:59:30.536Z,45.02
2023-05-02T14:02:01.431Z,44.45
2023-05-02T14:04:32.227Z,45.01
2023-05-02T14:07:02.861Z,45.46
2023-05-02T14:09:33.475Z,45.55
2023-05-02T14:12:04.395Z,46.05
2023-05-02T14:14:36.095Z,45.00
2023-05-02T14:17:07.112Z,45.16
2023-05-02T14:19:38.278Z,45.40
2023-05-02T14:22:09.337Z,45.33
2023-05-02T14:24:41.079Z,45.97
2023-05-02T14:27:13.058Z,46.12
2023-05-02T14:29:44.078Z,45.70
2023-05-02T14:32:15.393Z,45.05
2023-05-02T14:34:46.169Z,45.08
2023-05-02T14:37:16.903Z,44.84
2023-05-02T14:39:51.582Z,45.21
2023-05-02T14:42:23.730Z,45.35
2023-05-02T14:44:54.712Z,45.43
2023-05-02T14:47:27.396Z,45.47
2023-05-02T14:49:58.008Z,46.38
2023-05-02T14:52:28.859Z,46.09
2023-05-02T14:55:02.151Z,46.24
2023-05-02T14:57:32.790Z,46.60
2023-05-02T15:00:05.727Z,46.60
2023-05-02T15:02:37.091Z,46.78
2023-05-02T15:05:12.325Z,47.80
2023-05-02T15:07:43.171Z,48.34
2023-05-02T15:10:14.078Z,47.91
2023-05-02T15:12:46.812Z,47.19
2023-05-02T15:15:17.924Z,46.85
2023-05-02T15:17:48.977Z,46.78
2023-05-02T15:20:19.931Z,47.16
2023-05-02T15:22:50.589Z,46.81
2023-05-02T15:25:21.400Z,46.63
2023-05-02T15:27:52.743Z,46.07
2023-05-02T15:30:23.625Z,46.52
2023-05-02T15:32:54.606Z,45.84
2023-05-02T15:35:26.166Z,45.20
2023-05-02T15:37:56.983Z,46.18
2023-05-02T15:40:28.534Z,45.84
2023-05-02T15:42:59.535Z,45.02
2023-05-02T15:45:30.486Z,45.05
2023-05-02T15:48:01.119Z,44.90
2023-05-02T15:50:32.030Z,45.18
2023-05-02T15:53:03.349Z,45.71
2023-05-02T15:55:35.244Z,45.72
2023-05-02T15:58:06.235Z,46.11
2023-05-02T16:00:36.850Z,46.60
2023-05-02T16:03:07.461Z,46.73
2023-05-02T16:05:38.380Z,46.33
2023-05-02T16:08:09.013Z,45.97
2023-05-02T16:10:40.446Z,46.42
2023-05-02T16:13:11.398Z,47.49
2023-05-02T16:15:42.249Z,47.65
2023-05-02T16:18:13.031Z,48.01
2023-05-02T16:20:43.949Z,48.38
2023-05-02T16:23:14.863Z,48.55
2023-05-02T16:25:45.370Z,48.86
2023-05-02T16:28:16.090Z,48.86
2023-05-02T16:30:46.921Z,49.33
2023-05-02T16:33:17.607Z,49.47
2023-05-02T16:35:48.886Z,50.04
2023-05-02T16:38:19.397Z,50.15
2023-05-02T16:40:50.298Z,50.30
2023-05-02T16:43:21.046Z,50.07
2023-05-02T16:45:59.668Z,49.96
2023-05-02T16:48:30.711Z,50.32
2023-05-02T16:51:04.093Z,50.18
2023-05-02T16:53:35.857Z,50.23
2023-05-02T16:56:07.473Z,49.78
2023-05-02T16:58:38.419Z,49.39
2023-05-02T17:01:09.407Z,49.24
2023-05-02T17:03:40.602Z,49.12
2023-05-02T17:06:11.425Z,49.03
2023-05-02T17:08:42.751Z,49.54
2023-05-02T17:11:13.416Z,49.91
2023-05-02T17:13:44.722Z,50.12
2023-05-02T17:16:15.857Z,49.56
2023-05-02T17:18:46.739Z,49.75
2023-05-02T17:21:17.647Z,50.19
2023-05-02T17:23:48.157Z,50.60
2023-05-02T17:26:18.686Z,50.64
2023-05-02T17:28:50.382Z,50.64
2023-05-02T17:31:21.002Z,50.85
2023-05-02T17:33:52.348Z,51.05
2023-05-02T17:36:22.906Z,51.36
2023-05-02T17:38:53.503Z,51.45
2023-05-02T17:41:24.090Z,51.64
2023-05-02T17:43:54.998Z,51.93
2023-05-02T17:46:25.860Z,51.88
2023-05-02T17:48:56.502Z,50.90
2023-05-02T17:51:27.212Z,50.76
2023-05-02T17:53:57.720Z,50.70
2023-05-02T17:56:28.452Z,50.17
2023-05-02T17:59:00.498Z,50.37
2023-05-02T18:01:31.669Z,50.26
2023-05-02T18:04:04.095Z,50.60
2023-05-02T18:06:35.062Z,50.61
2023-05-02T18:09:05.894Z,50.57
2023-05-02T18:11:37.549Z,50.74
2023-05-02T18:14:08.314Z,51.42
2023-05-02T18:16:39.086Z,51.52
2023-05-02T18:19:10.058Z,51.58
2023-05-02T18:21:41.224Z,51.42
2023-05-02T18:24:12.028Z,51.60
2023-05-02T18:26:43.074Z,51.95
2023-05-02T18:29:13.956Z,51.72
2023-05-02T18:31:46.571Z,51.84
2023-05-02T18:34:17.143Z,52.05
2023-05-02T18:36:47.749Z,52.17
2023-05-02T18:39:21.434Z,52.51
2023-05-02T18:41:52.263Z,52.99
2023-05-02T18:44:22.722Z,53.46
2023-05-02T18:46:53.317Z,53.39
2023-05-02T18:49:24.136Z,53.69
2023-05-02T18:51:55.567Z,54.01
2023-05-02T18:54:27.820Z,53.97
2023-05-02T18:56:58.671Z,54.38
2023-05-02T18:59:29.163Z,54.64
2023-05-02T19:02:00.921Z,54.86
2023-05-02T19:04:34.400Z,54.86
2023-05-02T19:07:04.958Z,54.70
2023-05-02T19:09:36.241Z,54.98
2023-05-02T19:12:07.857Z,55.20
2023-05-02T19:14:39.620Z,55.28
2023-05-02T19:17:10.222Z,55.45
2023-05-02T19:19:41.730Z,55.44
2023-05-02T19:22:13.863Z,55.66
2023-05-02T19:24:44.590Z,55.81
2023-05-02T19:27:15.721Z,55.67
2023-05-02T19:29:46.214Z,55.70
2023-05-02T19:32:16.826Z,55.58
2023-05-02T19:34:50.884Z,55.74
2023-05-02T19:37:22.988Z,55.80
2023-05-02T19:39:55.143Z,56.11
2023-05-02T19:42:27.399Z,56.18
2023-05-02T19:45:00.204Z,56.38
2023-05-02T19:47:33.974Z,56.45
2023-05-02T19:50:08.462Z,56.60
2023-05-02T19:52:41.936Z,56.82
2023-05-02T19:55:16.712Z,56.72
2023-05-02T19:57:49.388Z,56.90
2023-05-02T20:00:22.310Z,57.13
2023-05-02T20:02:53.263Z,57.03
2023-05-02T20:05:24.069Z,57.17
2023-05-02T20:07:54.614Z,57.60
2023-05-02T20:10:26.294Z,57.72
2023-05-02T20:12:56.751Z,57.55
2023-05-02T20:15:27.987Z,57.50
2023-05-02T20:17:58.808Z,57.74
2023-05-02T20:20:29.762Z,58.09
2023-05-02T20:23:00.438Z,58.32
2023-05-02T20:25:31.130Z,58.29
2023-05-02T20:28:01.981Z,58.39
2023-05-02T20:30:33.577Z,58.39
2023-05-02T20:33:14.964Z,58.57
2023-05-02T20:35:54.034Z,58.83
2023-05-02T20:38:24.868Z,58.92
2023-05-02T20:40:55.630Z,59.08
2023-05-02T20:43:32.175Z,59.33
2023-05-02T20:46:11.953Z,59.31
2023-05-02T20:48:42.859Z,59.45
2023-05-02T20:51:13.551Z,59.64
2023-05-02T20:53:44.816Z,59.86
2023-05-02T20:56:15.840Z,59.94
2023-05-02T20:58:46.473Z,60.03
2023-05-02T21:01:17.673Z,60.15
2023-05-02T21:03:48.152Z,59.94
2023-05-02T21:06:19.718Z,60.07
2023-05-02T21:08:50.991Z,60.46
2023-05-02T21:11:21.964Z,60.58
2023-05-02T21:13:52.890Z,60.90
2023-05-02T21:16:23.634Z,60.66
2023-05-02T21:18:55.065Z,60.71
2023-05-02T21:21:26.478Z,60.83
2023-05-02T21:23:58.515Z,60.76
2023-05-02T21:26:29.079Z,60.89
2023-05-02T21:29:00.211Z,61.08
2023-05-02T21:31:32.731Z,61.13
2023-05-02T21:34:03.611Z,61.21
2023-05-02T21:36:35.224Z,61.33
2023-05-02T21:39:06.474Z,61.45
2023-05-02T21:41:37.635Z,61.60
2023-05-02T21:44:11.350Z,61.75
2023-05-02T21:46:42.030Z,61.72
2023-05-02T21:49:13.259Z,61.76
2023-05-02T21:51:44.368Z,61.92
2023-05-02T21:54:14.941Z,61.97
2023-05-02T21:56:45.989Z,62.27
2023-05-02T21:59:16.727Z,62.27
2023-05-02T22:01:47.357Z,62.43
2023-05-02T22:04:18.284Z,62.38
2023-05-02T22:06:53.202Z,62.55
2023-05-02T22:09:23.916Z,62.62
2023-05-02T22:11:54.936Z,62.65
2023-05-02T22:14:33.667Z,62.72
2023-05-02T22:17:12.667Z,62.73
2023-05-02T22:19:43.403Z,62.99
2023-05-02T22:22:14.362Z,62.98
2023-05-02T22:24:45.376Z,63.04
2023-05-02T22:27:16.210Z,63.05
2023-05-02T22:29:46.765Z,63.08
2023-05-02T22:32:17.394Z,63.21
2023-05-02T22:34:48.463Z,63.38
2023-05-02T22:37:19.066Z,63.12
2023-05-02T22:39:49.931Z,63.26
2023-05-02T22:42:21.426Z,63.23
2023-05-02T22:44:54.676Z,63.34
2023-05-02T22:47:26.810Z,63.52
2023-05-02T22:49:59.584Z,63.30
2023-05-02T22:52:30.658Z,63.40
2023-05-02T22:55:01.256Z,63.67
2023-05-02T22:57:31.947Z,63.72
2023-05-02T23:00:02.896Z,63.74
2023-05-02T23:02:35.526Z,64.05
2023-05-02T23:05:07.546Z,64.12
2023-05-02T23:07:38.229Z,64.01
2023-05-02T23:10:10.965Z,64.26
2023-05-02T23:12:42.000Z,64.11
2023-05-02T23:15:13.268Z,64.33
2023-05-02T23:17:44.212Z,64.33
2023-05-02T23:20:19.616Z,64.27
2023-05-02T23:22:51.360Z,64.40
2023-05-02T23:25:24.362Z,64.61
2023-05-02T23:27:55.392Z,64.84
2023-05-02T23:30:25.988Z,64.87
2023-05-02T23:32:57.625Z,64.83
2023-05-02T23:35:28.880Z,64.68
2023-05-02T23:38:01.889Z,64.94
2023-05-02T23:40:32.902Z,64.83
2023-05-02T23:43:03.638Z,64.87
2023-05-02T23:45:34.434Z,64.93
2023-05-02T23:48:05.939Z,64.63
2023-05-02T23:50:36.923Z,64.76
2023-05-02T23:53:08.409Z,64.50
2023-05-02T23:55:39.222Z,64.74
2023-05-02T23:58:10.192Z,64.81
